Time;durP1;ratioP1;P1;durP2;ratioP2;P2;SDS_P1;SDS_P2;PMS_P1;PMS_P2;Temp;Humidity;BMP_temperature;BMP_pressure;BME280_temperature;BME280_humidity;BME280_pressure;Samples;Min_cycle;Max_cycle;Signal;HPM_P1;HPM_P2
2023/04/12 00:00:39;;;;;;;;;;;;;;;11.11;60.15;94355.91;5095003;28;1053;-55
2023/04/12 00:03:06;;;;;;;;;;;;;;;11.11;60.25;94362.09;5095372;28;977;-55
2023/04/12 00:05:33;;;;;;;;;;;;;;;11.13;60.90;94354.72;5094924;28;1592;-55
2023/04/12 00:08:03;;;;;;;;;;;;;;;11.15;60.79;94351.84;5094999;28;972;-55
2023/04/12 00:10:29;;;;;;;;;;;;;;;11.13;60.38;94349.38;5094874;28;1882;-55
2023/04/12 00:12:55;;;;;;;;;;;;;;;11.08;60.19;94354.44;5094884;28;1906;-55
2023/04/12 00:15:21;;;;;;;;;;;;;;;11.16;59.75;94361.56;5095090;28;1029;-55
2023/04/12 00:17:47;;;;;;;;;;;;;;;11.12;59.66;94358.41;5095075;28;1035;-55
2023/04/12 00:20:15;;;;;;;;;;;;;;;11.19;59.03;94353.13;5094943;28;1044;-55
2023/04/12 00:22:41;;;;;;;;;;;;;;;11.27;58.73;94346.88;5094681;28;1044;-55
2023/04/12 00:25:08;;;;;;;;;;;;;;;11.27;58.87;94346.88;5094842;28;1015;-55
2023/04/12 00:27:34;;;;;;;;;;;;;;;11.40;58.19;94349.75;5094772;28;1059;-55
2023/04/12 00:30:00;;;;;;;;;;;;;;;11.50;57.75;94350.28;5094729;28;1011;-55
2023/04/12 00:32:26;;;;;;;;;;;;;;;11.43;58.34;94352.03;5094545;28;1986;-54
2023/04/12 00:34:52;;;;;;;;;;;;;;;11.45;57.60;94341.97;5094721;28;1040;-55
2023/04/12 00:37:18;;;;;;;;;;;;;;;11.42;57.79;94341.50;5093828;28;1111;-55
2023/04/12 00:39:44;;;;;;;;;;;;;;;11.46;57.45;94340.97;5094301;28;989;-55
2023/04/12 00:42:10;;;;;;;;;;;;;;;11.51;57.18;94346.59;5094250;28;1554;-55
2023/04/12 00:44:36;;;;;;;;;;;;;;;11.44;57.92;94337.66;5094017;28;1219;-54
2023/04/12 00:47:04;;;;;;;;;;;;;;;11.43;57.69;94338.66;5094452;28;1070;-55
2023/04/12 00:49:30;;;;;;;;;;;;;;;11.48;57.50;94340.78;5094156;28;2000;-55
2023/04/12 00:52:02;;;;;;;;;;;;;;;11.53;57.14;94339.22;5094148;28;1100;-55
2023/04/12 00:54:28;;;;;;;;;;;;;;;11.53;57.66;94339.22;5093935;28;1934;-55
2023/04/12 00:56:56;;;;;;;;;;;;;;;11.51;57.03;94335.03;5094044;28;1269;-55
2023/04/12 00:59:22;;;;;;;;;;;;;;;11.58;56.66;94330.59;5094011;28;1029;-55
2023/04/12 01:01:48;;;;;;;;;;;;;;;11.60;56.17;94317.03;5094295;28;1123;-55
2023/04/12 01:04:15;;;;;;;;;;;;;;;11.63;56.47;94325.53;5093945;28;997;-55
2023/04/12 01:06:46;;;;;;;;;;;;;;;11.67;56.28;94318.78;5093986;28;1205;-55
2023/04/12 01:09:27;;;;;;;;;;;;;;;11.70;55.99;94321.09;5093740;28;1909;-55
2023/04/12 01:11:53;;;;;;;;;;;;;;;11.70;56.08;94309.53;5093939;28;1115;-55
2023/04/12 01:14:19;;;;;;;;;;;;;;;11.52;56.65;94318.78;5093846;28;1914;-55
2023/04/12 01:16:52;;;;;;;;;;;;;;;11.57;56.48;94315.53;5093949;28;965;-54
2023/04/12 01:19:35;;;;;;;;;;;;;;;11.65;56.51;94312.78;5093890;28;1060;-55
2023/04/12 01:22:01;;;;;;;;;;;;;;;11.63;56.49;94312.13;5094039;28;965;-55
2023/04/12 01:24:42;;;;;;;;;;;;;;;11.69;56.18;94318.59;5093511;28;1030;-55
2023/04/12 01:27:12;;;;;;;;;;;;;;;11.72;55.47;94307.47;5093781;28;1001;-55
2023/04/12 01:29:39;;;;;;;;;;;;;;;11.69;55.62;94327.44;5093543;28;996;-55
2023/04/12 01:32:07;;;;;;;;;;;;;;;11.72;55.29;94318.19;5093532;28;1956;-55
2023/04/12 01:34:34;;;;;;;;;;;;;;;11.69;55.33;94322.09;5093602;28;1979;-55
2023/04/12 01:37:01;;;;;;;;;;;;;;;11.57;55.88;94315.53;5093783;28;1084;-53
2023/04/12 01:39:31;;;;;;;;;;;;;;;11.61;55.63;94329.38;5093322;28;1045;-55
2023/04/12 01:41:57;;;;;;;;;;;;;;;11.57;56.23;94328.09;5093591;28;1627;-55
2023/04/12 01:44:23;;;;;;;;;;;;;;;11.51;56.29;94332.34;5093199;28;1348;-55
2023/04/12 01:46:50;;;;;;;;;;;;;;;11.46;56.40;94322.22;5093417;28;996;-55
2023/04/12 01:49:17;;;;;;;;;;;;;;;11.42;56.12;94328.97;5094510;28;1040;-55
2023/04/12 01:52:06;;;;;;;;;;;;;;;11.44;55.64;94321.59;5097752;28;1042;-55
2023/04/12 01:54:35;;;;;;;;;;;;;;;11.36;56.02;94315.50;5097261;28;1905;-55
2023/04/12 01:57:02;;;;;;;;;;;;;;;11.27;55.81;94317.47;5097359;28;980;-55
2023/04/12 01:59:33;;;;;;;;;;;;;;;11.28;55.84;94314.56;5097314;28;1163;-55
2023/04/12 02:02:00;;;;;;;;;;;;;;;11.12;56.28;94304.91;5097281;28;1061;-55
2023/04/12 02:04:26;;;;;;;;;;;;;;;11.10;56.16;94311.47;5097225;28;1048;-55
2023/04/12 02:06:52;;;;;;;;;;;;;;;11.08;56.02;94303.63;5097377;28;1040;-55
2023/04/12 02:09:18;;;;;;;;;;;;;;;11.03;56.26;94299.84;5097301;28;1027;-55
2023/04/12 02:11:48;;;;;;;;;;;;;;;11.10;55.57;94298.09;5097625;28;1290;-55
2023/04/12 02:14:14;;;;;;;;;;;;;;;11.03;56.33;94292.63;5097353;28;1906;-55
2023/04/12 02:16:44;;;;;;;;;;;;;;;11.01;56.87;94286.63;5097486;28;1154;-55
2023/04/12 02:19:13;;;;;;;;;;;;;;;10.96;57.22;94278.34;5096875;28;1103;-55
2023/04/12 02:21:40;;;;;;;;;;;;;;;11.01;56.20;94273.28;5096994;28;1884;-55
2023/04/12 02:24:07;;;;;;;;;;;;;;;11.08;56.22;94276.88;5096975;28;1029;-55
2023/04/12 02:26:33;;;;;;;;;;;;;;;11.09;56.66;94289.22;5096960;28;1036;-55
2023/04/12 02:28:59;;;;;;;;;;;;;;;11.05;56.58;94284.44;5096867;28;1201;-55
2023/04/12 02:31:25;;;;;;;;;;;;;;;10.92;57.31;94288.56;5096935;28;972;-55
2023/04/12 02:33:51;;;;;;;;;;;;;;;10.87;58.07;94284.78;5097051;28;1985;-55
2023/04/12 02:36:17;;;;;;;;;;;;;;;10.97;57.06;94284.53;5096829;28;1016;-55
2023/04/12 02:38:43;;;;;;;;;;;;;;;11.01;57.71;94280.47;5096890;28;949;-55
2023/04/12 02:41:15;;;;;;;;;;;;;;;11.08;58.49;94281.41;5096692;28;1553;-55
2023/04/12 02:43:41;;;;;;;;;;;;;;;11.06;58.24;94283.41;5096509;28;1235;-55
2023/04/12 02:46:07;;;;;;;;;;;;;;;11.06;58.45;94281.56;5096884;28;1047;-55
2023/04/12 02:48:33;;;;;;;;;;;;;;;11.12;56.93;94285.34;5096665;28;1169;-54
2023/04/12 02:51:00;;;;;;;;;;;;;;;11.12;57.06;94278.16;5096629;28;984;-54
2023/04/12 02:53:26;;;;;;;;;;;;;;;11.04;57.70;94275.59;5096541;28;1909;-55
2023/04/12 02:55:51;;;;;;;;;;;;;;;11.07;57.82;94277.03;5096439;28;946;-55
2023/04/12 02:58:17;;;;;;;;;;;;;;;11.04;59.08;94266.72;5096046;28;1021;-55
2023/04/12 03:00:45;;;;;;;;;;;;;;;11.02;58.29;94274.09;5095514;28;1114;-55
2023/04/12 03:03:11;;;;;;;;;;;;;;;10.93;58.69;94265.34;5096014;28;917;-55
2023/04/12 03:05:38;;;;;;;;;;;;;;;10.89;58.72;94272.09;5096379;28;1021;-54
2023/04/12 03:08:04;;;;;;;;;;;;;;;10.93;58.72;94270.69;5096119;28;1045;-55
2023/04/12 03:10:30;;;;;;;;;;;;;;;10.94;58.32;94258.97;5094826;28;1016;-55
2023/04/12 03:12:56;;;;;;;;;;;;;;;10.92;58.03;94263.66;5095902;28;1905;-55
2023/04/12 03:15:22;;;;;;;;;;;;;;;11.00;57.43;94262.75;5095979;28;1063;-55
2023/04/12 03:17:48;;;;;;;;;;;;;;;11.05;57.19;94271.88;5096048;28;977;-55
2023/04/12 03:20:16;;;;;;;;;;;;;;;11.10;57.29;94261.47;5096109;28;1036;-54
2023/04/12 03:22:41;;;;;;;;;;;;;;;11.03;57.96;94267.75;5095861;28;1059;-55
2023/04/12 03:25:08;;;;;;;;;;;;;;;11.09;57.52;94264.31;5095845;28;1020;-54
2023/04/12 03:27:34;;;;;;;;;;;;;;;11.14;57.94;94260.06;5095585;28;1096;-55
2023/04/12 03:30:01;;;;;;;;;;;;;;;11.20;57.86;94265.69;5095988;28;969;-54
2023/04/12 03:32:27;;;;;;;;;;;;;;;11.17;56.96;94268.72;5095717;28;1910;-54
2023/04/12 03:34:52;;;;;;;;;;;;;;;11.21;58.16;94270.88;5095893;28;973;-54
2023/04/12 03:37:19;;;;;;;;;;;;;;;11.13;57.66;94269.13;5095468;28;965;-54
2023/04/12 03:39:46;;;;;;;;;;;;;;;11.09;57.42;94269.66;5095560;28;1076;-54
2023/04/12 03:42:13;;;;;;;;;;;;;;;11.01;58.16;94269.78;5095355;28;1559;-54
2023/04/12 03:44:39;;;;;;;;;;;;;;;11.05;57.66;94276.41;5095315;28;1278;-54
2023/04/12 03:47:05;;;;;;;;;;;;;;;11.03;57.98;94287.28;5095598;28;1031;-54
2023/04/12 03:49:31;;;;;;;;;;;;;;;11.09;57.57;94283.03;5095413;28;1036;-54
2023/04/12 03:51:57;;;;;;;;;;;;;;;11.10;57.82;94290.06;5095410;28;1043;-54
2023/04/12 03:54:23;;;;;;;;;;;;;;;11.12;57.55;94296.88;5093912;28;1909;-54
2023/04/12 03:56:49;;;;;;;;;;;;;;;11.13;57.71;94303.91;5095227;28;1023;-54
2023/04/12 03:59:15;;;;;;;;;;;;;;;11.05;57.85;94309.31;5095324;28;1127;-54
2023/04/12 04:01:42;;;;;;;;;;;;;;;11.06;58.00;94318.16;5095250;28;980;-54
2023/04/12 04:04:08;;;;;;;;;;;;;;;11.04;57.70;94318.38;5094960;28;1056;-54
2023/04/12 04:06:34;;;;;;;;;;;;;;;11.01;57.50;94316.06;5095025;28;953;-54
2023/04/12 04:09:00;;;;;;;;;;;;;;;11.07;57.01;94325.19;5095133;28;973;-55
2023/04/12 04:11:26;;;;;;;;;;;;;;;11.05;57.34;94332.56;5094716;28;1045;-55
2023/04/12 04:13:52;;;;;;;;;;;;;;;11.05;57.47;94346.78;5093680;28;1997;-55
2023/04/12 04:16:18;;;;;;;;;;;;;;;11.11;57.50;94351.38;5094863;28;985;-55
2023/04/12 04:18:44;;;;;;;;;;;;;;;11.07;57.43;94365.31;5094823;28;1024;-55
2023/04/12 04:21:10;;;;;;;;;;;;;;;11.14;57.29;94363.59;5094623;28;1021;-55
2023/04/12 04:23:38;;;;;;;;;;;;;;;11.12;57.81;94365.59;5094490;28;1894;-54
2023/04/12 04:26:08;;;;;;;;;;;;;;;11.08;57.19;94361.66;5094476;28;1049;-53
2023/04/12 04:28:36;;;;;;;;;;;;;;;11.13;57.12;94367.25;5094999;28;989;-55
2023/04/12 04:31:05;;;;;;;;;;;;;;;11.07;56.83;94360.78;5094517;28;1150;-55
2023/04/12 04:33:31;;;;;;;;;;;;;;;11.07;56.99;94359.97;5094230;28;1997;-55
2023/04/12 04:35:57;;;;;;;;;;;;;;;11.07;57.13;94368.81;5094596;28;1028;-55
2023/04/12 04:38:25;;;;;;;;;;;;;;;11.12;56.75;94362.94;5094375;28;965;-55
2023/04/12 04:40:54;;;;;;;;;;;;;;;11.22;56.50;94357.31;5094154;28;1673;-55
2023/04/12 04:43:20;;;;;;;;;;;;;;;11.29;56.87;94363.59;5094024;28;1100;-56
2023/04/12 04:45:48;;;;;;;;;;;;;;;11.29;55.95;94363.59;5094322;28;973;-55
2023/04/12 04:48:15;;;;;;;;;;;;;;;11.29;56.06;94363.59;5094245;28;953;-55
2023/04/12 04:50:41;;;;;;;;;;;;;;;11.29;56.00;94361.72;5094094;28;988;-54
2023/04/12 04:53:07;;;;;;;;;;;;;;;11.35;55.79;94367.38;5093998;28;1969;-54
2023/04/12 04:55:33;;;;;;;;;;;;;;;11.21;54.97;94369.00;5093809;28;1232;-54
2023/04/12 04:57:59;;;;;;;;;;;;;;;11.22;55.33;94358.13;5093020;28;1075;-53
2023/04/12 05:00:25;;;;;;;;;;;;;;;11.29;55.35;94366.25;5094001;28;1051;-54
2023/04/12 05:02:50;;;;;;;;;;;;;;;11.39;55.25;94365.97;5093797;28;1104;-54
2023/04/12 05:05:16;;;;;;;;;;;;;;;11.38;55.84;94365.13;5093807;28;961;-54
2023/04/12 05:07:43;;;;;;;;;;;;;;;11.34;55.09;94377.22;5094095;28;1063;-54
2023/04/12 05:10:09;;;;;;;;;;;;;;;11.37;55.24;94371.50;5094001;28;1001;-54
2023/04/12 05:12:35;;;;;;;;;;;;;;;11.39;54.93;94365.97;5093921;28;1986;-54
2023/04/12 05:15:02;;;;;;;;;;;;;;;11.34;55.21;94366.53;5093829;28;965;-54
2023/04/12 05:17:28;;;;;;;;;;;;;;;11.30;54.46;94367.91;5093477;28;1021;-54
2023/04/12 05:19:54;;;;;;;;;;;;;;;11.37;54.68;94371.50;5092540;28;1028;-55
2023/04/12 05:22:20;;;;;;;;;;;;;;;11.45;54.13;94376.75;5093545;28;980;-55
2023/04/12 05:24:47;;;;;;;;;;;;;;;11.30;55.23;94382.13;5093492;28;962;-55
2023/04/12 05:27:15;;;;;;;;;;;;;;;11.30;54.24;94384.78;5093476;28;1115;-54
2023/04/12 05:29:44;;;;;;;;;;;;;;;11.24;55.29;94382.03;5093798;28;1040;-55
2023/04/12 05:32:10;;;;;;;;;;;;;;;11.25;55.12;94389.88;5093588;28;1036;-55
2023/04/12 05:34:36;;;;;;;;;;;;;;;11.40;54.01;94389.03;5093489;28;1974;-55
2023/04/12 05:37:25;;;;;;;;;;;;;;;11.39;54.34;94385.53;5093203;28;1247;-54
2023/04/12 05:39:50;;;;;;;;;;;;;;;11.44;54.85;94393.84;5093702;28;996;-55
2023/04/12 05:42:16;;;;;;;;;;;;;;;11.39;54.07;94396.25;5093605;28;1834;-55
2023/04/12 05:44:44;;;;;;;;;;;;;;;11.28;53.62;94407.41;5093462;28;1060;-54
2023/04/12 05:47:10;;;;;;;;;;;;;;;11.26;53.81;94402.22;5093387;28;1008;-54
2023/04/12 05:49:37;;;;;;;;;;;;;;;11.29;53.84;94407.22;5093226;28;1068;-54
2023/04/12 05:52:04;;;;;;;;;;;;;;;11.23;53.99;94413.31;5092347;28;1031;-55
2023/04/12 05:54:30;;;;;;;;;;;;;;;11.20;53.99;94419.03;5093400;28;1914;-55
2023/04/12 05:56:56;;;;;;;;;;;;;;;11.21;53.45;94401.97;5093584;28;1028;-55
2023/04/12 05:59:22;;;;;;;;;;;;;;;11.31;53.10;94399.03;5093226;28;984;-55
2023/04/12 06:01:48;;;;;;;;;;;;;;;11.40;53.08;94400.59;5093314;28;1031;-54
2023/04/12 06:04:14;;;;;;;;;;;;;;;11.44;53.78;94403.72;5093105;28;1040;-55
2023/04/12 06:06:42;;;;;;;;;;;;;;;11.35;53.91;94405.66;5093063;28;1870;-54
2023/04/12 06:09:08;;;;;;;;;;;;;;;11.26;53.99;94402.22;5093194;28;1016;-54
2023/04/12 06:11:34;;;;;;;;;;;;;;;11.11;54.32;94404.88;5093167;28;1147;-54
2023/04/12 06:14:01;;;;;;;;;;;;;;;11.18;54.41;94398.81;5093345;28;2001;-54
2023/04/12 06:16:26;;;;;;;;;;;;;;;11.14;53.79;94401.03;5092995;28;1862;-54
2023/04/12 06:18:52;;;;;;;;;;;;;;;11.24;54.28;94390.88;5093071;28;1183;-54
2023/04/12 06:21:19;;;;;;;;;;;;;;;11.30;53.62;94390.13;5092932;28;1100;-54
2023/04/12 06:23:45;;;;;;;;;;;;;;;11.21;53.98;94383.25;5092950;28;1037;-55
2023/04/12 06:26:11;;;;;;;;;;;;;;;11.28;54.55;94388.66;5093092;28;1066;-54
2023/04/12 06:28:37;;;;;;;;;;;;;;;11.50;53.57;94392.28;5093057;28;1012;-55
2023/04/12 06:31:03;;;;;;;;;;;;;;;11.57;53.28;94387.00;5092971;28;1001;-54
2023/04/12 06:33:29;;;;;;;;;;;;;;;11.68;52.92;94389.22;5093026;28;1918;-55
2023/04/12 06:35:55;;;;;;;;;;;;;;;11.75;53.41;94389.31;5093396;28;1037;-54
2023/04/12 06:38:21;;;;;;;;;;;;;;;11.81;53.20;94389.38;5096994;28;1035;-54
2023/04/12 06:40:47;;;;;;;;;;;;;;;11.79;53.76;94395.94;5096539;28;1527;-54
2023/04/12 06:43:19;;;;;;;;;;;;;;;11.67;54.17;94392.91;5096538;28;1215;-55
2023/04/12 06:45:46;;;;;;;;;;;;;;;11.82;53.71;94392.88;5096864;28;1054;-55
2023/04/12 06:48:12;;;;;;;;;;;;;;;11.75;53.56;94395.50;5096361;28;989;-55
2023/04/12 06:50:38;;;;;;;;;;;;;;;11.66;53.44;94396.59;5096604;28;1005;-56
2023/04/12 06:53:04;;;;;;;;;;;;;;;11.54;53.48;94404.28;5096581;28;1984;-55
2023/04/12 06:55:30;;;;;;;;;;;;;;;11.52;53.78;94398.28;5096304;28;1041;-56
2023/04/12 06:57:57;;;;;;;;;;;;;;;11.42;54.16;94390.53;5096611;28;1039;-55
2023/04/12 07:00:23;;;;;;;;;;;;;;;11.42;54.88;94400.38;5096263;28;1051;-55
2023/04/12 07:02:49;;;;;;;;;;;;;;;11.48;54.09;94400.50;5096246;28;1024;-55
2023/04/12 07:05:15;;;;;;;;;;;;;;;11.57;53.78;94397.72;5095978;28;1088;-54
2023/04/12 07:07:41;;;;;;;;;;;;;;;11.61;54.05;94401.66;5095238;28;1023;-55
2023/04/12 07:10:07;;;;;;;;;;;;;;;11.73;54.18;94405.56;5096243;28;1047;-54
2023/04/12 07:12:33;;;;;;;;;;;;;;;11.61;54.18;94405.22;5096167;28;1039;-55
2023/04/12 07:14:59;;;;;;;;;;;;;;;11.61;54.26;94413.25;5095968;28;1096;-55
2023/04/12 07:17:25;;;;;;;;;;;;;;;11.50;54.57;94414.53;5096162;28;1023;-54
2023/04/12 07:19:53;;;;;;;;;;;;;;;11.26;55.02;94412.94;5096161;28;1053;-54
2023/04/12 07:22:19;;;;;;;;;;;;;;;11.32;55.34;94422.06;5096134;28;1043;-54
2023/04/12 07:24:45;;;;;;;;;;;;;;;11.28;55.24;94421.59;5095864;28;1092;-54
2023/04/12 07:27:11;;;;;;;;;;;;;;;11.22;55.74;94419.66;5095713;28;1073;-54
2023/04/12 07:29:37;;;;;;;;;;;;;;;11.22;55.72;94424.19;5095789;28;1029;-54
2023/04/12 07:32:03;;;;;;;;;;;;;;;11.29;55.69;94419.78;5095538;28;1961;-54
2023/04/12 07:34:29;;;;;;;;;;;;;;;11.43;55.26;94418.94;5095409;28;1996;-54
2023/04/12 07:36:55;;;;;;;;;;;;;;;11.41;54.97;94426.34;5095059;28;1085;-55
2023/04/12 07:39:21;;;;;;;;;;;;;;;11.38;55.09;94432.03;5095579;28;1039;-55
2023/04/12 07:41:48;;;;;;;;;;;;;;;11.28;55.10;94428.81;5095623;28;1538;-54
2023/04/12 07:44:14;;;;;;;;;;;;;;;11.28;55.36;94429.63;5095048;28;1258;-54
2023/04/12 07:46:41;;;;;;;;;;;;;;;11.36;54.53;94433.25;5095229;28;1017;-55
2023/04/12 07:49:09;;;;;;;;;;;;;;;11.37;54.99;94427.72;5095022;28;1076;-54
2023/04/12 07:51:35;;;;;;;;;;;;;;;11.43;54.38;94429.66;5095209;28;997;-54
2023/04/12 07:54:02;;;;;;;;;;;;;;;11.46;54.01;94434.66;5094994;28;1906;-54
2023/04/12 07:56:28;;;;;;;;;;;;;;;11.78;53.80;94427.25;5095196;28;984;-54
2023/04/12 07:58:54;;;;;;;;;;;;;;;12.08;52.52;94432.59;5094983;28;1043;-55
2023/04/12 08:01:20;;;;;;;;;;;;;;;12.35;52.00;94428.38;5094700;28;1049;-54
2023/04/12 08:03:46;;;;;;;;;;;;;;;12.33;52.38;94425.06;5094962;28;1039;-54
2023/04/12 08:06:12;;;;;;;;;;;;;;;12.45;51.25;94417.34;5094812;28;1092;-55
2023/04/12 08:08:39;;;;;;;;;;;;;;;12.52;51.15;94418.25;5095010;28;1051;-54
2023/04/12 08:11:05;;;;;;;;;;;;;;;12.64;51.17;94422.06;5094813;28;1028;-55
2023/04/12 08:13:34;;;;;;;;;;;;;;;12.68;50.97;94415.28;5094755;28;2028;-55
2023/04/12 08:16:00;;;;;;;;;;;;;;;13.03;51.48;94412.72;5094762;28;1008;-54
2023/04/12 08:18:28;;;;;;;;;;;;;;;13.99;49.25;94419.34;5094663;28;1024;-55
2023/04/12 08:20:57;;;;;;;;;;;;;;;13.79;49.76;94419.22;5094470;28;1016;-55
2023/04/12 08:23:23;;;;;;;;;;;;;;;13.41;49.68;94430.34;5094519;28;1059;-55
2023/04/12 08:25:50;;;;;;;;;;;;;;;13.09;50.81;94413.81;5094444;28;1055;-55
2023/04/12 08:28:16;;;;;;;;;;;;;;;12.93;51.30;94419.44;5094197;28;1025;-55
2023/04/12 08:30:42;;;;;;;;;;;;;;;12.76;50.76;94413.50;5094296;28;1100;-55
2023/04/12 08:33:08;;;;;;;;;;;;;;;12.68;49.69;94428.72;5094101;28;1901;-54
2023/04/12 08:35:34;;;;;;;;;;;;;;;12.62;48.11;94426.78;5094399;28;1052;-55
2023/04/12 08:38:06;;;;;;;;;;;;;;;12.46;47.67;94427.03;5094528;28;961;-54
2023/04/12 08:40:32;;;;;;;;;;;;;;;12.52;48.23;94430.81;5093959;28;1335;-55
2023/04/12 08:43:00;;;;;;;;;;;;;;;12.94;47.22;94435.34;5093892;28;1100;-56
2023/04/12 08:45:28;;;;;;;;;;;;;;;13.48;45.62;94424.00;5094130;28;1152;-55
2023/04/12 08:47:54;;;;;;;;;;;;;;;13.68;45.89;94434.06;5092687;28;1271;-55
2023/04/12 08:50:21;;;;;;;;;;;;;;;14.43;43.92;94431.47;5093854;28;1064;-55
2023/04/12 08:52:48;;;;;;;;;;;;;;;14.80;43.38;94432.03;5094115;28;1914;-55
2023/04/12 08:55:28;;;;;;;;;;;;;;;15.26;42.16;94435.78;5090062;28;1152;-55
2023/04/12 08:57:55;;;;;;;;;;;;;;;15.08;42.24;94431.84;5093772;28;1028;-55
2023/04/12 09:00:21;;;;;;;;;;;;;;;15.07;42.28;94418.59;5093484;28;1016;-56
2023/04/12 09:02:48;;;;;;;;;;;;;;;15.92;41.83;94430.31;5093928;28;1044;-55
2023/04/12 09:05:15;;;;;;;;;;;;;;;15.73;41.48;94425.78;5093595;28;1061;-55
2023/04/12 09:07:42;;;;;;;;;;;;;;;16.47;41.72;94434.47;5093691;28;1029;-55
2023/04/12 09:10:08;;;;;;;;;;;;;;;16.56;40.23;94427.78;5093845;28;918;-55
2023/04/12 09:12:43;;;;;;;;;;;;;;;16.34;39.87;94428.09;5093469;28;980;-56
2023/04/12 09:15:14;;;;;;;;;;;;;;;16.11;39.47;94423.22;5093776;28;1039;-56
2023/04/12 09:17:41;;;;;;;;;;;;;;;15.90;40.76;94410.84;5093399;28;1882;-56
2023/04/12 09:20:28;;;;;;;;;;;;;;;15.58;41.31;94412.53;5093584;28;1069;-55
2023/04/12 09:22:54;;;;;;;;;;;;;;;15.84;41.24;94409.00;5093470;28;1060;-55
2023/04/12 09:25:35;;;;;;;;;;;;;;;15.63;41.29;94401.94;5093383;28;1057;-55
2023/04/12 09:28:01;;;;;;;;;;;;;;;15.14;41.58;94397.84;5093588;28;1046;-55
2023/04/12 09:30:27;;;;;;;;;;;;;;;14.89;41.74;94390.44;5093248;28;1033;-55
2023/04/12 09:32:54;;;;;;;;;;;;;;;14.88;41.96;94391.44;5093134;28;1898;-56
2023/04/12 09:35:32;;;;;;;;;;;;;;;15.51;41.00;94396.38;5093196;28;957;-55
2023/04/12 09:38:05;;;;;;;;;;;;;;;15.88;40.90;94385.97;5093650;28;1042;-55
2023/04/12 09:40:35;;;;;;;;;;;;;;;16.32;39.63;94381.63;5093237;28;1283;-56
2023/04/12 09:43:02;;;;;;;;;;;;;;;16.96;39.42;94371.72;5092994;28;1250;-55
2023/04/12 09:45:30;;;;;;;;;;;;;;;17.17;37.14;94377.78;5093130;28;1105;-55
2023/04/12 09:47:56;;;;;;;;;;;;;;;17.41;36.43;94388.78;5092991;28;1107;-55
2023/04/12 09:50:25;;;;;;;;;;;;;;;17.36;36.48;94378.66;5092954;28;1057;-56
2023/04/12 09:52:52;;;;;;;;;;;;;;;17.43;36.27;94375.88;5093073;28;1918;-55
2023/04/12 09:55:20;;;;;;;;;;;;;;;17.40;36.38;94387.13;5093341;28;1043;-55
2023/04/12 09:57:49;;;;;;;;;;;;;;;17.29;36.24;94376.00;5093305;28;1056;-55
2023/04/12 10:00:18;;;;;;;;;;;;;;;17.39;34.53;94380.06;5093266;28;973;-55
2023/04/12 10:02:46;;;;;;;;;;;;;;;17.43;34.98;94387.50;5092811;28;926;-55
2023/04/12 10:05:14;;;;;;;;;;;;;;;17.02;35.30;94385.38;5093194;28;1009;-54
2023/04/12 10:07:42;;;;;;;;;;;;;;;16.92;34.23;94392.09;5093286;28;988;-55
2023/04/12 10:10:11;;;;;;;;;;;;;;;17.01;34.12;94383.72;5094090;28;983;-55
2023/04/12 10:12:41;;;;;;;;;;;;;;;16.96;34.07;94385.19;5097145;28;960;-55
2023/04/12 10:15:12;;;;;;;;;;;;;;;17.04;34.64;94361.69;5097139;28;1041;-55
2023/04/12 10:17:44;;;;;;;;;;;;;;;17.32;34.42;94364.75;5096826;28;1131;-55
2023/04/12 10:20:11;;;;;;;;;;;;;;;17.61;34.00;94359.69;5097048;28;933;-55
2023/04/12 10:22:38;;;;;;;;;;;;;;;17.54;33.79;94377.84;5097144;28;1028;-55
2023/04/12 10:25:08;;;;;;;;;;;;;;;17.33;33.00;94369.09;5096788;28;1049;-55
2023/04/12 10:27:35;;;;;;;;;;;;;;;17.19;32.76;94364.88;5096674;28;1071;-55
2023/04/12 10:30:17;;;;;;;;;;;;;;;17.47;33.28;94355.44;5096630;28;997;-55
2023/04/12 10:32:45;;;;;;;;;;;;;;;17.66;32.82;94353.59;5096671;28;1914;-55
2023/04/12 10:35:11;;;;;;;;;;;;;;;17.48;33.20;94363.34;5096826;28;969;-55
2023/04/12 10:38:00;;;;;;;;;;;;;;;17.68;32.94;94346.94;5096614;28;1039;-55
2023/04/12 10:40:31;;;;;;;;;;;;;;;17.62;33.16;94357.81;5096259;28;1249;-55
2023/04/12 10:43:16;;;;;;;;;;;;;;;16.98;32.60;94363.38;5096517;28;1246;-56
2023/04/12 10:45:43;;;;;;;;;;;;;;;16.66;33.03;94346.38;5096636;28;1046;-55
2023/04/12 10:48:30;;;;;;;;;;;;;;;16.35;33.11;94348.00;5096189;28;1049;-55
2023/04/12 10:51:13;;;;;;;;;;;;;;;16.92;33.13;94348.03;5096226;28;1037;-55
2023/04/12 10:53:39;;;;;;;;;;;;;;;17.05;32.78;94344.41;5096142;28;1986;-55
2023/04/12 10:56:25;;;;;;;;;;;;;;;17.10;32.37;94339.19;5096179;28;1116;-55
2023/04/12 10:58:52;;;;;;;;;;;;;;;17.46;32.66;94335.72;5096114;28;1071;-56
2023/04/12 11:01:18;;;;;;;;;;;;;;;17.56;32.00;94343.31;5095780;28;1128;-55
2023/04/12 11:04:03;;;;;;;;;;;;;;;17.54;31.79;94346.22;5095961;28;1081;-55
2023/04/12 11:07:03;;;;;;;;;;;;;;;17.60;31.57;94341.81;5095941;28;941;-55
2023/04/12 11:09:32;;;;;;;;;;;;;;;17.59;31.09;94340.16;5062666;28;1166;-55
2023/04/12 11:12:04;;;;;;;;;;;;;;;17.11;30.87;94335.44;5096046;28;957;-55
2023/04/12 11:14:57;;;;;;;;;;;;;;;16.86;30.91;94341.66;5095694;28;1909;-54
2023/04/12 11:17:24;;;;;;;;;;;;;;;17.00;31.09;94344.25;5092976;28;1706;-55
2023/04/12 11:19:55;;;;;;;;;;;;;;;17.05;30.35;94328.22;5095630;28;1029;-55
2023/04/12 11:22:26;;;;;;;;;;;;;;;17.15;31.39;94347.47;5095205;28;1024;-55
2023/04/12 11:24:57;;;;;;;;;;;;;;;17.18;31.39;94347.00;5095976;28;1120;-55
2023/04/12 11:27:24;;;;;;;;;;;;;;;16.74;30.57;94340.69;5095505;28;1064;-55
2023/04/12 11:29:54;;;;;;;;;;;;;;;16.93;30.89;94345.13;5095823;28;936;-55
2023/04/12 11:32:22;;;;;;;;;;;;;;;17.20;30.54;94344.91;5095350;28;1044;-55
2023/04/12 11:34:49;;;;;;;;;;;;;;;17.33;30.55;94331.28;5095365;28;1994;-55
2023/04/12 11:37:17;;;;;;;;;;;;;;;17.26;31.05;94327.78;5095389;28;1036;-55
2023/04/12 11:39:44;;;;;;;;;;;;;;;17.25;29.89;94333.44;5095619;28;996;-55
2023/04/12 11:42:18;;;;;;;;;;;;;;;16.77;29.76;94324.06;5095459;28;1244;-55
2023/04/12 11:44:45;;;;;;;;;;;;;;;16.46;30.47;94317.63;5095271;28;1041;-55
2023/04/12 11:47:14;;;;;;;;;;;;;;;16.54;29.62;94316.53;5094860;28;1100;-55
2023/04/12 11:49:44;;;;;;;;;;;;;;;16.59;30.38;94317.53;5095413;28;941;-55
2023/04/12 11:52:11;;;;;;;;;;;;;;;16.61;29.68;94314.63;5094968;28;1254;-55
2023/04/12 11:54:45;;;;;;;;;;;;;;;16.56;30.03;94307.19;5094985;28;1911;-55
2023/04/12 11:57:15;;;;;;;;;;;;;;;16.54;29.22;94303.88;5095077;28;1008;-55
2023/04/12 11:59:46;;;;;;;;;;;;;;;16.18;28.96;94299.97;5094959;28;969;-55
2023/04/12 12:02:13;;;;;;;;;;;;;;;16.34;30.27;94301.31;5095101;28;1059;-55
2023/04/12 12:04:41;;;;;;;;;;;;;;;16.51;28.00;94298.09;5095078;28;1039;-54
2023/04/12 12:07:08;;;;;;;;;;;;;;;16.59;28.83;94298.63;5094957;28;969;-55
2023/04/12 12:09:34;;;;;;;;;;;;;;;16.83;28.29;94312.41;5094657;28;1017;-55
2023/04/12 12:12:01;;;;;;;;;;;;;;;16.82;28.00;94310.75;5094806;28;1001;-55
2023/04/12 12:14:28;;;;;;;;;;;;;;;16.80;27.22;94315.50;5093555;28;1909;-55
2023/04/12 12:16:55;;;;;;;;;;;;;;;16.59;26.24;94319.41;5094492;28;1021;-54
2023/04/12 12:19:29;;;;;;;;;;;;;;;16.68;28.48;94301.09;5094540;28;1045;-55
2023/04/12 12:22:12;;;;;;;;;;;;;;;16.85;27.59;94315.72;5094653;28;996;-54
2023/04/12 12:24:48;;;;;;;;;;;;;;;16.93;27.59;94303.81;5094462;28;1136;-55
2023/04/12 12:27:21;;;;;;;;;;;;;;;17.14;28.07;94302.59;5094275;28;921;-54
2023/04/12 12:29:49;;;;;;;;;;;;;;;17.06;28.00;94292.06;5094416;28;1104;-55
2023/04/12 12:32:17;;;;;;;;;;;;;;;16.87;25.07;94305.53;5094442;28;989;-55
2023/04/12 12:34:53;;;;;;;;;;;;;;;16.93;26.58;94312.72;5093413;28;1914;-54
2023/04/12 12:37:24;;;;;;;;;;;;;;;16.97;26.57;94313.13;5092921;28;1033;-54
2023/04/12 12:42:42;;;;;;;;;;;;;;;17.09;27.57;94295.16;5094085;28;1311;-56
2023/04/12 12:45:09;;;;;;;;;;;;;;;17.12;27.00;94301.97;5094129;28;989;-55
2023/04/12 12:47:48;;;;;;;;;;;;;;;17.04;27.16;94302.28;5094074;28;1069;-55
2023/04/12 12:50:18;;;;;;;;;;;;;;;16.95;27.84;94299.03;5093856;28;1092;-55
2023/04/12 12:52:45;;;;;;;;;;;;;;;17.19;27.57;94305.44;5093781;28;1053;-55
2023/04/12 12:55:12;;;;;;;;;;;;;;;17.23;27.23;94301.25;5093895;28;1947;-53
2023/04/12 12:57:39;;;;;;;;;;;;;;;17.38;27.08;94306.31;5093929;28;996;-54
2023/04/12 13:00:08;;;;;;;;;;;;;;;17.44;27.67;94305.41;5093905;28;996;-54
2023/04/12 13:02:35;;;;;;;;;;;;;;;17.41;26.78;94308.53;5093717;28;937;-53
2023/04/12 13:05:02;;;;;;;;;;;;;;;17.17;25.98;94318.34;5094105;28;1035;-54
2023/04/12 13:07:29;;;;;;;;;;;;;;;17.01;27.66;94311.63;5094063;28;1219;-54